Time;durP1;ratioP1;P1;durP2;ratioP2;P2;SDS_P1;SDS_P2;PMS_P1;PMS_P2;Temp;Humidity;BMP_temperature;BMP_pressure;BME280_temperature;BME280_humidity;BME280_pressure;Samples;Min_cycle;Max_cycle;Signal;HPM_P1;HPM_P2
2021/11/17 02:26:26;;;;;;;79.45;19.23;;;;;;;;;;4980307;28;20025;-60
2021/11/17 02:28:56;;;;;;;72.80;18.20;;;;;;;;;;4983350;28;20489;-59
2021/11/17 02:31:36;;;;;;;83.00;17.92;;;;;;;;;;4979106;28;20119;-59
2021/11/17 02:34:15;;;;;;;84.43;20.35;;;;;;;;;;4963104;28;20030;-60
2021/11/17 02:37:06;;;;;;;73.88;18.42;;;;;;;;;;4985223;28;20068;-59
2021/11/17 02:39:47;;;;;;;90.90;19.48;;;;;;;;;;4954476;28;20045;-60
2021/11/17 02:42:32;;;;;;;81.88;19.17;;;;;;;;;;4967380;28;20049;-61
2021/11/17 02:45:00;;;;;;;63.10;17.00;;;;;;;;;;4983596;28;20034;-60
2021/11/17 02:47:51;;;;;;;76.10;19.50;;;;;;;;;;4984546;28;21974;-61
2021/11/17 02:50:32;;;;;;;71.22;19.00;;;;;;;;;;4980586;28;20052;-60
2021/11/17 02:53:03;;;;;;;73.43;17.38;;;;;;;;;;4967503;28;20084;-61
2021/11/17 02:55:31;;;;;;;80.50;18.92;;;;;;;;;;4980340;28;20038;-60
2021/11/17 02:57:59;;;;;;;75.20;18.75;;;;;;;;;;4981879;28;20037;-60
2021/11/17 03:00:24;;;;;;;71.05;18.35;;;;;;;;;;4981870;28;20718;-59
2021/11/17 03:03:09;;;;;;;75.65;18.00;;;;;;;;;;4982727;28;20068;-58
2021/11/17 03:05:39;;;;;;;74.80;17.67;;;;;;;;;;4983236;28;20112;-58
2021/11/17 03:08:10;;;;;;;72.18;17.45;;;;;;;;;;4986493;28;20034;-60
2021/11/17 03:10:55;;;;;;;71.40;18.35;;;;;;;;;;4987074;28;20034;-59
2021/11/17 03:13:26;;;;;;;81.00;18.65;;;;;;;;;;4987748;28;20069;-59
2021/11/17 03:16:00;;;;;;;62.95;17.88;;;;;;;;;;4987698;28;20048;-60
2021/11/17 03:18:31;;;;;;;67.53;17.73;;;;;;;;;;4986982;28;20052;-59
2021/11/17 03:21:00;;;;;;;73.93;19.10;;;;;;;;;;4986419;28;20124;-58
2021/11/17 03:23:29;;;;;;;69.25;17.95;;;;;;;;;;5001767;28;20045;-62
2021/11/17 03:26:03;;;;;;;58.97;17.30;;;;;;;;;;4987159;28;20026;-59
2021/11/17 03:28:31;;;;;;;68.35;17.40;;;;;;;;;;4985038;28;20022;-59
2021/11/17 03:31:17;;;;;;;76.07;18.63;;;;;;;;;;5001488;28;20508;-59
2021/11/17 03:33:45;;;;;;;66.35;16.23;;;;;;;;;;5002322;28;20034;-58
2021/11/17 03:36:17;;;;;;;74.97;19.33;;;;;;;;;;4985882;28;20049;-59
2021/11/17 03:39:01;;;;;;;78.97;19.60;;;;;;;;;;4987579;28;20502;-59
2021/11/17 03:41:29;;;;;;;69.80;19.25;;;;;;;;;;4983433;28;20128;-59
2021/11/17 03:44:03;;;;;;;79.43;17.27;;;;;;;;;;4986213;28;20026;-58
2021/11/17 03:46:34;;;;;;;71.95;19.20;;;;;;;;;;5001721;28;20041;-60
2021/11/17 03:49:08;;;;;;;68.20;16.70;;;;;;;;;;4985093;28;20061;-59
2021/11/17 03:51:40;;;;;;;67.07;19.35;;;;;;;;;;4985580;28;20018;-61
2021/11/17 03:54:08;;;;;;;73.78;18.98;;;;;;;;;;4986881;28;20037;-59
2021/11/17 03:56:40;;;;;;;81.82;18.77;;;;;;;;;;4986321;28;20026;-61
2021/11/17 03:59:11;;;;;;;82.82;19.85;;;;;;;;;;4987475;28;20064;-59
2021/11/17 04:01:58;;;;;;;80.50;20.00;;;;;;;;;;4982806;28;20061;-59
2021/11/17 04:04:26;;;;;;;83.22;20.17;;;;;;;;;;4987332;28;20038;-59
2021/11/17 04:06:58;;;;;;;84.93;21.02;;;;;;;;;;4986275;28;20954;-59
2021/11/17 04:09:38;;;;;;;78.18;20.35;;;;;;;;;;4986826;28;20030;-59
2021/11/17 04:12:25;;;;;;;78.95;20.77;;;;;;;;;;4983275;28;20091;-59
2021/11/17 04:14:53;;;;;;;81.85;19.33;;;;;;;;;;4982824;28;20033;-59
2021/11/17 04:17:54;;;;;;;76.15;18.75;;;;;;;;;;4982624;28;20477;-58
2021/11/17 04:20:28;;;;;;;67.38;18.52;;;;;;;;;;4932981;28;20042;-63
2021/11/17 04:22:56;;;;;;;82.07;20.38;;;;;;;;;;5003828;28;20339;-60
2021/11/17 04:25:54;;;;;;;75.68;19.90;;;;;;;;;;4986036;28;20038;-60
2021/11/17 04:28:30;;;;;;;72.53;19.30;;;;;;;;;;4905823;28;20047;-60
2021/11/17 04:31:02;;;;;;;73.53;18.48;;;;;;;;;;4990039;28;20050;-62
2021/11/17 04:33:44;;;;;;;81.80;21.10;;;;;;;;;;4986926;28;20034;-59
2021/11/17 04:36:24;;;;;;;80.25;17.90;;;;;;;;;;4982482;28;20037;-59
2021/11/17 04:39:05;;;;;;;74.93;18.67;;;;;;;;;;4999495;28;20052;-60
2021/11/17 04:41:53;;;;;;;77.00;18.95;;;;;;;;;;4984835;28;20025;-59
2021/11/17 04:44:23;;;;;;;84.63;20.15;;;;;;;;;;4999972;28;20026;-59
2021/11/17 04:46:49;;;;;;;70.07;18.35;;;;;;;;;;5002594;28;20041;-58
2021/11/17 04:49:22;;;;;;;77.38;19.23;;;;;;;;;;4983268;28;20030;-58
2021/11/17 04:52:05;;;;;;;74.53;18.63;;;;;;;;;;4986197;28;20038;-58
2021/11/17 04:54:40;;;;;;;61.42;16.75;;;;;;;;;;4987789;28;20030;-58
2021/11/17 04:57:08;;;;;;;78.47;19.45;;;;;;;;;;4985303;28;20076;-59
2021/11/17 04:59:41;;;;;;;67.47;19.98;;;;;;;;;;4986482;28;20111;-60
2021/11/17 05:02:19;;;;;;;70.80;18.98;;;;;;;;;;4969986;28;20504;-59
2021/11/17 05:05:06;;;;;;;67.78;18.33;;;;;;;;;;4998358;28;20034;-59
2021/11/17 05:07:37;;;;;;;74.23;18.60;;;;;;;;;;4986851;28;20125;-60
2021/11/17 05:10:11;;;;;;;81.85;20.20;;;;;;;;;;4985904;28;20038;-60
2021/11/17 05:12:57;;;;;;;78.10;18.38;;;;;;;;;;4986141;28;20084;-61
2021/11/17 05:15:31;;;;;;;57.05;18.15;;;;;;;;;;4998425;28;20041;-61
2021/11/17 05:18:06;;;;;;;66.00;19.20;;;;;;;;;;4986347;28;20042;-60
2021/11/17 05:20:39;;;;;;;81.75;21.58;;;;;;;;;;4984048;28;20542;-60
2021/11/17 05:23:30;;;;;;;84.07;19.73;;;;;;;;;;4987132;28;20054;-60
2021/11/17 05:26:16;;;;;;;85.68;19.88;;;;;;;;;;4966226;28;20042;-58
2021/11/17 05:28:51;;;;;;;83.80;21.05;;;;;;;;;;4999956;28;20033;-59
2021/11/17 05:31:37;;;;;;;93.97;19.40;;;;;;;;;;4998860;28;20136;-60
2021/11/17 05:34:08;;;;;;;74.35;20.20;;;;;;;;;;4986121;28;20034;-60
2021/11/17 05:36:39;;;;;;;92.15;22.10;;;;;;;;;;4987130;28;20483;-59
2021/11/17 05:39:16;;;;;;;70.93;19.40;;;;;;;;;;4986736;28;20131;-59
2021/11/17 05:41:55;;;;;;;81.68;19.42;;;;;;;;;;5000796;28;20026;-60
2021/11/17 05:44:23;;;;;;;84.82;20.63;;;;;;;;;;4984251;28;20025;-60
2021/11/17 05:46:51;;;;;;;76.18;20.48;;;;;;;;;;4984729;28;20022;-60
2021/11/17 05:49:22;;;;;;;107.28;24.30;;;;;;;;;;4998926;28;20075;-59
2021/11/17 05:51:47;;;;;;;100.25;23.13;;;;;;;;;;4987202;28;20036;-60
2021/11/17 05:54:27;;;;;;;95.72;23.92;;;;;;;;;;4998508;28;20033;-63
2021/11/17 05:57:04;;;;;;;101.20;24.02;;;;;;;;;;4983312;28;20084;-60
2021/11/17 05:59:32;;;;;;;86.50;25.13;;;;;;;;;;4969082;28;20112;-60
2021/11/17 06:02:04;;;;;;;101.15;25.50;;;;;;;;;;4983881;28;20044;-60
2021/11/17 06:04:32;;;;;;;107.88;25.38;;;;;;;;;;4986521;28;20025;-60
2021/11/17 06:06:59;;;;;;;91.05;24.40;;;;;;;;;;4983670;28;20034;-60
2021/11/17 06:09:24;;;;;;;99.43;25.13;;;;;;;;;;4981682;28;20219;-59
2021/11/17 06:12:09;;;;;;;100.10;23.35;;;;;;;;;;4998635;28;20060;-59
2021/11/17 06:14:43;;;;;;;104.57;25.70;;;;;;;;;;4986467;28;20038;-61
2021/11/17 06:17:15;;;;;;;97.40;23.77;;;;;;;;;;4984754;28;20053;-60
2021/11/17 06:19:45;;;;;;;111.85;25.75;;;;;;;;;;4984700;28;20042;-60
2021/11/17 06:22:11;;;;;;;95.38;24.88;;;;;;;;;;4984944;28;20065;-59
2021/11/17 06:24:40;;;;;;;94.15;25.60;;;;;;;;;;4986350;28;20666;-60
2021/11/17 06:27:15;;;;;;;106.25;25.88;;;;;;;;;;4984793;28;20033;-60
2021/11/17 06:29:45;;;;;;;103.93;26.05;;;;;;;;;;4982904;28;20614;-59
2021/11/17 06:32:11;;;;;;;98.50;27.05;;;;;;;;;;4987181;28;20049;-60
2021/11/17 06:35:07;;;;;;;99.40;26.15;;;;;;;;;;4985431;28;20042;-60
2021/11/17 06:37:37;;;;;;;122.10;29.67;;;;;;;;;;4985161;28;20108;-61
2021/11/17 06:40:06;;;;;;;111.88;27.10;;;;;;;;;;4986238;28;20132;-61
2021/11/17 06:42:36;;;;;;;123.13;28.13;;;;;;;;;;5002468;28;20057;-59
2021/11/17 06:45:04;;;;;;;111.10;27.92;;;;;;;;;;4990811;28;20568;-58
2021/11/17 06:47:30;;;;;;;113.15;27.48;;;;;;;;;;4990823;28;20026;-60
2021/11/17 06:49:57;;;;;;;105.10;30.30;;;;;;;;;;4988860;28;20053;-60
2021/11/17 06:52:27;;;;;;;116.38;28.95;;;;;;;;;;4989301;28;20033;-59
2021/11/17 06:54:53;;;;;;;112.80;27.63;;;;;;;;;;4987962;28;20137;-61
2021/11/17 06:57:21;;;;;;;112.38;28.58;;;;;;;;;;4991199;28;20053;-60
2021/11/17 06:59:49;;;;;;;111.88;27.60;;;;;;;;;;4987727;28;20087;-59
2021/11/17 07:02:17;;;;;;;109.75;28.60;;;;;;;;;;4987196;28;20030;-59
2021/11/17 07:04:45;;;;;;;109.00;29.17;;;;;;;;;;4989957;28;20103;-60
2021/11/17 07:07:13;;;;;;;112.90;28.05;;;;;;;;;;4989575;28;20025;-59
2021/11/17 07:09:42;;;;;;;104.95;27.92;;;;;;;;;;4986882;28;20084;-59
2021/11/17 07:12:17;;;;;;;102.43;28.10;;;;;;;;;;4984827;28;20064;-59
2021/11/17 07:14:48;;;;;;;106.57;27.90;;;;;;;;;;4985657;28;20632;-60
2021/11/17 07:17:16;;;;;;;105.80;27.88;;;;;;;;;;4987939;28;20037;-60
2021/11/17 07:19:42;;;;;;;99.57;31.00;;;;;;;;;;5002194;28;20026;-61
2021/11/17 07:22:10;;;;;;;117.72;29.65;;;;;;;;;;4986935;28;20066;-61
2021/11/17 07:24:37;;;;;;;104.43;28.85;;;;;;;;;;5000659;28;20018;-60
2021/11/17 07:27:03;;;;;;;106.68;29.63;;;;;;;;;;4962927;28;20030;-60
2021/11/17 07:29:28;;;;;;;113.25;30.00;;;;;;;;;;5002963;28;20056;-60
2021/11/17 07:31:54;;;;;;;115.43;29.70;;;;;;;;;;4981425;28;20048;-60
2021/11/17 07:34:25;;;;;;;124.07;29.80;;;;;;;;;;4985906;28;20034;-60
2021/11/17 07:36:53;;;;;;;112.72;28.73;;;;;;;;;;4986822;28;20030;-60
2021/11/17 07:39:19;;;;;;;102.95;27.67;;;;;;;;;;4982634;28;20122;-61
2021/11/17 07:41:49;;;;;;;99.30;27.67;;;;;;;;;;4999684;28;20026;-60
2021/11/17 07:44:18;;;;;;;99.10;28.17;;;;;;;;;;4995307;28;20049;-59
2021/11/17 07:46:46;;;;;;;116.47;30.02;;;;;;;;;;4990380;28;20030;-60
2021/11/17 07:49:15;;;;;;;113.47;29.50;;;;;;;;;;4978161;28;20053;-59
2021/11/17 07:51:42;;;;;;;121.78;30.55;;;;;;;;;;5001861;28;20018;-60
2021/11/17 07:54:08;;;;;;;107.38;28.50;;;;;;;;;;4969632;28;20116;-61
2021/11/17 07:56:38;;;;;;;108.93;30.45;;;;;;;;;;4986094;28;20046;-59
2021/11/17 07:59:04;;;;;;;119.47;32.25;;;;;;;;;;4986319;28;20032;-59
2021/11/17 08:01:30;;;;;;;94.50;28.05;;;;;;;;;;4985095;28;20116;-60
2021/11/17 08:04:00;;;;;;;99.43;27.60;;;;;;;;;;4986723;28;20049;-61
2021/11/17 08:06:29;;;;;;;107.65;29.13;;;;;;;;;;4986552;28;20038;-59
2021/11/17 08:08:57;;;;;;;87.25;26.55;;;;;;;;;;4965529;28;20719;-60
2021/11/17 08:11:27;;;;;;;94.15;26.33;;;;;;;;;;4985342;28;20125;-60
2021/11/17 08:14:30;;;;;;;79.05;23.73;;;;;;;;;;4999891;28;20030;-59
2021/11/17 08:17:01;;;;;;;67.78;20.73;;;;;;;;;;4983032;28;20038;-59
2021/11/17 08:19:27;;;;;;;79.10;21.88;;;;;;;;;;4985059;28;20069;-59
2021/11/17 08:21:58;;;;;;;61.58;20.67;;;;;;;;;;4984775;28;20187;-58
2021/11/17 08:24:23;;;;;;;74.38;22.20;;;;;;;;;;4985148;28;20149;-58
2021/11/17 08:26:52;;;;;;;78.50;21.55;;;;;;;;;;4969658;28;20106;-59
2021/11/17 08:29:17;;;;;;;76.13;22.13;;;;;;;;;;4979944;28;20064;-58
2021/11/17 08:32:15;;;;;;;68.68;22.23;;;;;;;;;;4979360;28;20050;-59
2021/11/17 08:34:46;;;;;;;67.65;21.52;;;;;;;;;;4979625;28;20235;-58
2021/11/17 08:37:32;;;;;;;77.65;21.75;;;;;;;;;;4979893;28;20045;-59
2021/11/17 08:40:04;;;;;;;73.43;22.52;;;;;;;;;;4981543;28;20033;-58
2021/11/17 08:43:01;;;;;;;66.40;21.30;;;;;;;;;;4983826;28;20119;-59
2021/11/17 08:45:27;;;;;;;82.95;22.25;;;;;;;;;;4984490;28;21103;-59
2021/11/17 08:47:53;;;;;;;69.65;21.13;;;;;;;;;;4985345;28;20026;-59
2021/11/17 08:53:55;;;;;;;73.82;20.63;;;;;;;;;;4984375;28;20037;-59
2021/11/17 08:56:32;;;;;;;73.32;21.33;;;;;;;;;;4959741;28;20042;-59
2021/11/17 08:58:57;;;;;;;62.17;20.55;;;;;;;;;;4968161;28;20065;-59
2021/11/17 09:01:23;;;;;;;76.07;20.95;;;;;;;;;;4982223;28;20042;-59
2021/11/17 09:03:50;;;;;;;70.03;20.85;;;;;;;;;;4981606;28;20108;-59
2021/11/17 09:06:18;;;;;;;64.95;20.48;;;;;;;;;;4982414;28;20061;-58
2021/11/17 09:08:47;;;;;;;76.13;22.13;;;;;;;;;;4983529;28;20030;-60
2021/11/17 09:11:19;;;;;;;70.32;20.45;;;;;;;;;;4981562;28;20458;-58
2021/11/17 09:13:47;;;;;;;72.78;21.77;;;;;;;;;;4980316;28;20497;-57
2021/11/17 09:16:13;;;;;;;68.55;21.38;;;;;;;;;;4982472;28;20574;-58
2021/11/17 09:18:40;;;;;;;60.15;18.77;;;;;;;;;;4982015;28;20034;-59
2021/11/17 09:21:08;;;;;;;57.33;18.70;;;;;;;;;;4982589;28;20434;-59
2021/11/17 09:23:33;;;;;;;59.35;19.33;;;;;;;;;;4983151;28;20045;-60
2021/11/17 09:26:01;;;;;;;57.22;17.40;;;;;;;;;;4984295;28;20029;-59
2021/11/17 09:28:29;;;;;;;62.72;19.83;;;;;;;;;;4986687;28;20164;-59
2021/11/17 09:30:57;;;;;;;54.92;18.60;;;;;;;;;;4986085;28;20058;-59
2021/11/17 09:33:26;;;;;;;57.58;17.80;;;;;;;;;;4982952;28;20045;-58
2021/11/17 09:35:54;;;;;;;59.10;18.60;;;;;;;;;;4997652;28;20033;-58
2021/11/17 09:38:22;;;;;;;78.35;18.63;;;;;;;;;;4984043;28;20033;-58
2021/11/17 09:40:50;;;;;;;60.45;17.23;;;;;;;;;;4983316;28;20064;-58
2021/11/17 09:43:26;;;;;;;49.78;16.05;;;;;;;;;;4984258;28;20549;-58
2021/11/17 09:52:43;;;;;;;42.75;14.77;;;;;;;;;;4985172;28;20456;-58
2021/11/17 09:55:11;;;;;;;;;;;;;;;;;;4986349;28;20031;-60
2021/11/17 09:57:44;;;;;;;43.15;14.35;;;;;;;;;;4986693;28;19924;-59
2021/11/17 10:00:10;;;;;;;41.47;14.82;;;;;;;;;;4983540;28;20037;-60
2021/11/17 10:02:41;;;;;;;42.92;14.00;;;;;;;;;;4981908;28;20060;-57
2021/11/17 10:05:16;;;;;;;38.70;13.90;;;;;;;;;;4981859;28;20029;-58
2021/11/17 10:13:17;;;;;;;34.92;11.00;;;;;;;;;;4986081;28;20046;-58
2021/11/17 10:15:46;;;;;;;31.70;10.48;;;;;;;;;;4880024;28;21082;-58
2021/11/17 10:18:25;;;;;;;38.85;11.95;;;;;;;;;;4983487;28;20065;-61
2021/11/17 10:20:52;;;;;;;28.58;9.90;;;;;;;;;;4984966;28;20167;-60
2021/11/17 10:23:24;;;;;;;26.15;10.18;;;;;;;;;;4983205;28;20026;-59
2021/11/17 10:29:23;;;;;;;35.17;9.82;;;;;;;;;;4986278;28;20663;-58
2021/11/17 10:32:02;;;;;;;23.33;8.95;;;;;;;;;;4982610;28;20818;-59
2021/11/17 10:38:20;;;;;;;26.67;9.10;;;;;;;;;;4983436;28;20096;-59
2021/11/17 10:40:53;;;;;;;29.80;8.52;;;;;;;;;;4999772;28;20030;-59
2021/11/17 10:43:26;;;;;;;27.08;7.78;;;;;;;;;;4983537;28;20121;-59
2021/11/17 10:46:02;;;;;;;20.27;8.15;;;;;;;;;;4985680;28;20030;-59
2021/11/17 10:48:38;;;;;;;27.55;6.75;;;;;;;;;;4999018;28;20026;-59
2021/11/17 10:51:13;;;;;;;13.18;5.55;;;;;;;;;;4986087;28;20053;-58
2021/11/17 10:53:46;;;;;;;15.10;4.32;;;;;;;;;;4966212;28;20030;-58
2021/11/17 10:56:32;;;;;;;16.63;4.63;;;;;;;;;;4987221;28;20030;-58
2021/11/17 10:59:00;;;;;;;19.30;3.78;;;;;;;;;;4984712;28;20960;-58
2021/11/17 11:02:00;;;;;;;14.40;3.53;;;;;;;;;;4984025;28;20650;-58
2021/11/17 11:04:30;;;;;;;18.95;3.42;;;;;;;;;;4986089;28;20077;-59
2021/11/17 11:07:16;;;;;;;14.65;3.20;;;;;;;;;;4983442;28;20038;-59
2021/11/17 11:09:43;;;;;;;20.45;3.05;;;;;;;;;;4972088;28;20494;-59
2021/11/17 11:12:15;;;;;;;11.65;1.90;;;;;;;;;;4999874;28;20785;-59
2021/11/17 11:14:49;;;;;;;20.70;2.65;;;;;;;;;;4981665;28;20470;-60
2021/11/17 11:17:30;;;;;;;12.40;1.98;;;;;;;;;;4981779;28;20038;-61
2021/11/17 11:20:17;;;;;;;10.13;1.83;;;;;;;;;;4984417;28;20021;-60
2021/11/17 11:22:58;;;;;;;7.80;1.75;;;;;;;;;;4984000;28;20425;-60
2021/11/17 11:25:38;;;;;;;12.73;2.13;;;;;;;;;;4984499;28;20030;-60
2021/11/17 11:28:25;;;;;;;10.60;1.85;;;;;;;;;;4986766;28;20089;-58
2021/11/17 11:31:07;;;;;;;19.67;2.65;;;;;;;;;;4995343;28;20180;-59
2021/11/17 11:33:32;;;;;;;14.45;2.53;;;;;;;;;;4986605;28;20045;-59
2021/11/17 11:39:34;;;;;;;12.27;1.67;;;;;;;;;;4986937;28;20021;-59
2021/11/17 11:42:24;;;;;;;5.25;1.67;;;;;;;;;;4985328;28;20037;-61
2021/11/17 11:45:21;;;;;;;13.00;1.73;;;;;;;;;;4986398;28;20041;-59
2021/11/17 11:48:01;;;;;;;14.65;2.03;;;;;;;;;;4985947;28;20029;-62
2021/11/17 11:50:29;;;;;;;12.48;1.63;;;;;;;;;;4999514;28;20030;-59
2021/11/17 11:53:13;;;;;;;13.40;2.28;;;;;;;;;;4978420;28;20034;-59
2021/11/17 11:56:00;;;;;;;16.83;2.20;;;;;;;;;;4984432;28;20128;-58
2021/11/17 11:58:26;;;;;;;12.88;1.73;;;;;;;;;;4986043;28;20049;-59
2021/11/17 12:00:56;;;;;;;14.35;1.50;;;;;;;;;;4984641;28;20045;-60
2021/11/17 12:03:26;;;;;;;9.10;1.75;;;;;;;;;;4981827;28;20154;-59
2021/11/17 12:06:00;;;;;;;15.57;2.33;;;;;;;;;;4981665;28;20044;-59
2021/11/17 12:08:27;;;;;;;10.18;1.60;;;;;;;;;;4986857;28;20041;-59
2021/11/17 12:11:03;;;;;;;15.40;1.67;;;;;;;;;;4984763;28;20022;-60
2021/11/17 12:13:31;;;;;;;18.35;2.00;;;;;;;;;;4985475;28;20042;-59
2021/11/17 12:16:14;;;;;;;16.08;1.67;;;;;;;;;;4968131;28;20038;-60
2021/11/17 12:18:46;;;;;;;9.30;1.38;;;;;;;;;;4983322;28;21085;-59
2021/11/17 12:21:13;;;;;;;17.83;2.05;;;;;;;;;;4983020;28;20042;-59
2021/11/17 12:23:43;;;;;;;15.55;1.52;;;;;;;;;;4985455;28;20128;-59
2021/11/17 12:26:12;;;;;;;19.13;2.05;;;;;;;;;;4986973;28;20022;-59
2021/11/17 12:32:33;;;;;;;8.43;1.63;;;;;;;;;;4985629;28;20958;-60
2021/11/17 12:34:58;;;;;;;12.65;2.00;;;;;;;;;;4999383;28;20046;-60
2021/11/17 12:37:25;;;;;;;11.15;1.48;;;;;;;;;;4981309;28;20068;-60
2021/11/17 12:39:56;;;;;;;12.15;1.77;;;;;;;;;;4968085;28;20038;-60
2021/11/17 12:42:23;;;;;;;20.70;2.15;;;;;;;;;;4988035;28;20057;-60
2021/11/17 12:44:52;;;;;;;18.15;1.90;;;;;;;;;;4984696;28;20474;-60
2021/11/17 12:47:41;;;;;;;10.70;1.75;;;;;;;;;;4968836;28;20030;-60
2021/11/17 12:54:03;;;;;;;9.85;1.60;;;;;;;;;;4985163;28;20039;-59
2021/11/17 12:56:53;;;;;;;12.60;1.60;;;;;;;;;;4984581;28;20140;-59
2021/11/17 12:59:24;;;;;;;16.00;2.17;;;;;;;;;;4983731;28;20038;-59
2021/11/17 13:01:54;;;;;;;14.45;1.75;;;;;;;;;;4984179;28;20046;-60
2021/11/17 13:04:25;;;;;;;12.20;1.90;;;;;;;;;;4983572;28;20648;-58
2021/11/17 13:06:58;;;;;;;10.80;1.65;;;;;;;;;;4982273;28;20076;-60
2021/11/17 13:09:31;;;;;;;7.25;1.45;;;;;;;;;;4985844;28;20045;-58
2021/11/17 13:12:20;;;;;;;11.00;1.88;;;;;;;;;;4998613;28;20087;-59
2021/11/17 13:15:22;;;;;;;10.93;1.35;;;;;;;;;;4958661;28;20030;-60
2021/11/17 13:17:48;;;;;;;11.27;1.08;;;;;;;;;;4999742;28;20037;-60
2021/11/17 13:20:47;;;;;;;8.82;1.52;;;;;;;;;;4983448;28;20120;-59
2021/11/17 13:23:33;;;;;;;16.92;1.42;;;;;;;;;;4981459;28;20057;-60
2021/11/17 13:26:13;;;;;;;7.53;1.50;;;;;;;;;;4984282;28;20744;-59
2021/11/17 13:28:43;;;;;;;9.98;1.63;;;;;;;;;;4980319;28;20034;-61
2021/11/17 13:31:27;;;;;;;6.35;1.42;;;;;;;;;;4982605;28;20060;-60
2021/11/17 13:34:08;;;;;;;16.52;1.50;;;;;;;;;;4985139;28;20037;-60
2021/11/17 13:36:39;;;;;;;8.85;1.40;;;;;;;;;;4999525;28;20044;-60
2021/11/17 13:39:07;;;;;;;5.88;0.98;;;;;;;;;;4983932;28;20033;-60
2021/11/17 13:41:40;;;;;;;11.55;2.05;;;;;;;;;;4981040;28;20049;-61
2021/11/17 13:44:06;;;;;;;8.90;1.52;;;;;;;;;;4983601;28;20069;-60
2021/11/17 13:47:01;;;;;;;7.45;0.85;;;;;;;;;;4981830;28;22001;-60
2021/11/17 13:49:29;;;;;;;6.47;1.10;;;;;;;;;;4966110;28;20516;-61
2021/11/17 13:51:58;;;;;;;12.35;1.13;;;;;;;;;;4984338;28;20022;-59
2021/11/17 13:54:24;;;;;;;17.20;1.77;;;;;;;;;;4984457;28;20457;-60
2021/11/17 13:56:53;;;;;;;11.80;2.05;;;;;;;;;;4998605;28;20026;-60
2021/11/17 13:59:21;;;;;;;7.78;1.23;;;;;;;;;;4984168;28;20030;-60
2021/11/17 14:01:49;;;;;;;9.65;1.38;;;;;;;;;;4984874;28;20030;-60
2021/11/17 14:04:14;;;;;;;8.10;1.40;;;;;;;;;;4984608;28;20033;-60
2021/11/17 14:06:42;;;;;;;10.43;1.67;;;;;;;;;;4982942;28;20115;-59
2021/11/17 14:09:20;;;;;;;5.97;1.35;;;;;;;;;;4983910;28;21982;-59
2021/11/17 14:11:48;;;;;;;6.88;0.80;;;;;;;;;;4955653;28;20076;-60
2021/11/17 14:14:16;;;;;;;13.07;1.10;;;;;;;;;;4982694;28;20028;-59
2021/11/17 14:16:46;;;;;;;13.07;1.90;;;;;;;;;;4981262;28;20030;-59
2021/11/17 14:19:14;;;;;;;12.20;1.02;;;;;;;;;;4976282;28;20034;-60
2021/11/17 14:21:43;;;;;;;4.70;0.90;;;;;;;;;;4959181;28;20048;-59
2021/11/17 14:24:10;;;;;;;5.97;1.40;;;;;;;;;;4975088;28;20448;-60
2021/11/17 14:26:40;;;;;;;8.13;1.33;;;;;;;;;;4974122;28;20105;-61
2021/11/17 14:29:15;;;;;;;9.55;1.00;;;;;;;;;;4973457;28;20042;-59
2021/11/17 14:31:46;;;;;;;6.47;1.05;;;;;;;;;;4980066;28;20140;-60
2021/11/17 14:34:12;;;;;;;12.00;1.00;;;;;;;;;;4990942;28;20062;-60
2021/11/17 14:36:40;;;;;;;5.07;0.80;;;;;;;;;;4973863;28;20034;-61
2021/11/17 14:39:09;;;;;;;15.30;1.38;;;;;;;;;;4983388;28;20101;-61
2021/11/17 14:41:37;;;;;;;4.32;1.13;;;;;;;;;;4985408;28;20028;-61
2021/11/17 14:44:03;;;;;;;9.52;1.42;;;;;;;;;;4979630;28;20038;-61
2021/11/17 14:46:32;;;;;;;6.82;1.20;;;;;;;;;;4976845;28;21691;-60
2021/11/17 14:48:58;;;;;;;11.38;0.90;;;;;;;;;;4979533;28;20034;-60
2021/11/17 14:51:24;;;;;;;5.30;1.30;;;;;;;;;;4973275;28;20037;-60
2021/11/17 14:53:52;;;;;;;7.80;1.35;;;;;;;;;;4977024;28;20059;-60
2021/11/17 14:56:22;;;;;;;15.02;2.05;;;;;;;;;;4975458;28;20038;-60
2021/11/17 14:58:53;;;;;;;10.43;1.30;;;;;;;;;;4976919;28;20790;-60
2021/11/17 15:01:25;;;;;;;9.20;1.13;;;;;;;;;;4979244;28;20030;-60
2021/11/17 15:03:56;;;;;;;17.17;1.27;;;;;;;;;;4999224;28;20152;-60
2021/11/17 15:06:27;;;;;;;13.32;1.27;;;;;;;;;;5004517;28;20038;-61
2021/11/17 15:08:53;;;;;;;8.82;1.13;;;;;;;;;;4988091;28;20030;-60
2021/11/17 15:11:21;;;;;;;6.90;1.40;;;;;;;;;;4985121;28;20037;-61
2021/11/17 15:13:50;;;;;;;10.98;1.98;;;;;;;;;;4986570;28;20619;-61
2021/11/17 15:16:15;;;;;;;12.57;1.55;;;;;;;;;;4986426;28;20092;-60
2021/11/17 15:18:45;;;;;;;15.65;1.83;;;;;;;;;;4986403;28;20036;-60
2021/11/17 15:21:17;;;;;;;6.95;1.05;;;;;;;;;;4985781;28;20025;-60
2021/11/17 15:23:45;;;;;;;14.60;1.83;;;;;;;;;;4987868;28;20852;-59
2021/11/17 15:26:16;;;;;;;8.68;1.35;;;;;;;;;;5001416;28;20025;-60
2021/11/17 15:28:45;;;;;;;8.13;1.15;;;;;;;;;;4987772;28;20060;-59
2021/11/17 15:31:21;;;;;;;9.27;1.45;;;;;;;;;;4983436;28;20797;-61
2021/11/17 15:33:46;;;;;;;6.72;1.30;;;;;;;;;;4984610;28;20065;-60
2021/11/17 15:36:12;;;;;;;16.88;1.38;;;;;;;;;;4986001;28;20457;-60
2021/11/17 15:38:41;;;;;;;25.70;2.03;;;;;;;;;;4970299;28;20029;-60
2021/11/17 15:41:15;;;;;;;2.85;0.93;;;;;;;;;;4984314;28;20041;-60
2021/11/17 15:43:42;;;;;;;5.40;0.80;;;;;;;;;;5002248;28;20090;-61
2021/11/17 15:46:10;;;;;;;21.83;1.88;;;;;;;;;;4982526;28;20569;-61
2021/11/17 15:48:36;;;;;;;7.70;1.35;;;;;;;;;;4986499;28;20227;-60
2021/11/17 15:51:19;;;;;;;9.35;1.42;;;;;;;;;;4999388;28;20397;-61
2021/11/17 15:53:45;;;;;;;7.90;1.08;;;;;;;;;;4985896;28;20163;-59
2021/11/17 15:56:11;;;;;;;5.22;1.15;;;;;;;;;;4982560;28;21239;-60
2021/11/17 15:58:39;;;;;;;8.57;1.23;;;;;;;;;;4985794;28;20038;-61
2021/11/17 16:01:12;;;;;;;21.60;1.85;;;;;;;;;;4986540;28;20038;-62
2021/11/17 16:03:42;;;;;;;16.35;1.80;;;;;;;;;;4968210;28;20034;-62
2021/11/17 16:06:09;;;;;;;16.85;2.95;;;;;;;;;;4984994;28;20492;-61
2021/11/17 16:08:35;;;;;;;26.35;1.92;;;;;;;;;;4968522;28;20041;-62
2021/11/17 16:11:06;;;;;;;17.30;2.08;;;;;;;;;;4983358;28;20037;-61
2021/11/17 16:13:32;;;;;;;15.70;1.58;;;;;;;;;;4986084;28;20104;-60
2021/11/17 16:16:02;;;;;;;14.95;1.55;;;;;;;;;;4985595;28;21025;-62
2021/11/17 16:18:30;;;;;;;14.43;2.58;;;;;;;;;;4989083;28;20092;-62
2021/11/17 16:20:58;;;;;;;14.15;1.77;;;;;;;;;;4982930;28;20030;-60
2021/11/17 16:25:58;;;;;;;15.45;2.60;;;;;;;;;;4980704;28;20030;-60
2021/11/17 16:28:26;;;;;;;10.15;1.55;;;;;;;;;;4987431;28;20046;-60
2021/11/17 16:30:57;;;;;;;5.45;1.00;;;;;;;;;;4985651;28;20050;-60
2021/11/17 16:33:23;;;;;;;3.45;0.47;;;;;;;;;;5003642;28;20164;-60
2021/11/17 16:35:52;;;;;;;6.47;1.13;;;;;;;;;;4980693;28;21133;-60
2021/11/17 16:38:25;;;;;;;13.85;1.35;;;;;;;;;;4986332;28;20033;-60
2021/11/17 16:40:53;;;;;;;13.07;1.58;;;;;;;;;;4981341;28;20104;-60
2021/11/17 16:43:24;;;;;;;7.57;1.60;;;;;;;;;;4983907;28;20026;-59
2021/11/17 16:45:59;;;;;;;8.07;1.08;;;;;;;;;;4984446;28;20030;-59
2021/11/17 16:48:28;;;;;;;13.07;1.60;;;;;;;;;;4998648;28;20033;-59
2021/11/17 16:50:54;;;;;;;4.10;1.23;;;;;;;;;;4984250;28;20025;-59
2021/11/17 16:53:21;;;;;;;11.57;1.50;;;;;;;;;;4986447;28;20614;-58
2021/11/17 16:55:47;;;;;;;7.30;1.45;;;;;;;;;;4984282;28;20041;-59
2021/11/17 16:58:15;;;;;;;11.45;1.80;;;;;;;;;;4982929;28;20049;-60
2021/11/17 17:00:46;;;;;;;12.32;1.98;;;;;;;;;;4998566;28;20145;-60
2021/11/17 17:03:19;;;;;;;13.50;1.83;;;;;;;;;;4983289;28;20022;-59
2021/11/17 17:05:48;;;;;;;8.00;1.45;;;;;;;;;;4985007;28;20042;-59
2021/11/17 17:08:16;;;;;;;9.30;1.33;;;;;;;;;;4984612;28;20085;-59
2021/11/17 17:10:42;;;;;;;14.13;1.23;;;;;;;;;;4982466;28;20643;-58
2021/11/17 17:13:09;;;;;;;8.63;1.60;;;;;;;;;;4985539;28;20084;-59
2021/11/17 17:15:43;;;;;;;7.13;1.23;;;;;;;;;;4965624;28;20153;-58
2021/11/17 17:18:15;;;;;;;9.95;1.23;;;;;;;;;;5001979;28;20120;-60
2021/11/17 17:20:42;;;;;;;7.18;1.42;;;;;;;;;;4984336;28;20046;-58
2021/11/17 17:23:10;;;;;;;8.13;1.70;;;;;;;;;;4987870;28;20042;-59
2021/11/17 17:25:41;;;;;;;8.80;1.40;;;;;;;;;;4982320;28;20036;-59
2021/11/17 17:28:10;;;;;;;6.05;1.13;;;;;;;;;;4964070;28;20484;-59
2021/11/17 17:30:39;;;;;;;10.82;1.13;;;;;;;;;;4984515;28;20030;-59
2021/11/17 17:33:06;;;;;;;4.32;0.73;;;;;;;;;;4999905;28;20125;-59
2021/11/17 17:35:36;;;;;;;9.18;1.52;;;;;;;;;;4984767;28;20026;-59
2021/11/17 17:38:02;;;;;;;13.00;1.55;;;;;;;;;;4986044;28;20029;-58
2021/11/17 17:40:32;;;;;;;12.60;1.40;;;;;;;;;;4984718;28;20119;-59
2021/11/17 17:42:59;;;;;;;4.63;1.05;;;;;;;;;;4986271;28;20037;-59
2021/11/17 17:45:27;;;;;;;5.53;1.17;;;;;;;;;;4963211;28;20042;-59
2021/11/17 17:47:58;;;;;;;11.63;1.88;;;;;;;;;;4983301;28;20042;-59
2021/11/17 17:50:31;;;;;;;7.47;1.95;;;;;;;;;;4984528;28;20108;-58
2021/11/17 17:53:00;;;;;;;10.63;1.23;;;;;;;;;;4969967;28;20037;-59
2021/11/17 17:55:28;;;;;;;7.32;1.70;;;;;;;;;;4981309;28;20022;-59